sensor_id;sensor_type;location;lat;lon;timestamp;pressure;altitude;pressure_sealevel;temperature;humidity
42671;BME280;28283;55.426;37.756;2022-12-07T00:04:41;100575.69;;;-9.43;58.12
42671;BME280;28283;55.426;37.756;2022-12-07T00:09:41;100605.69;;;-9.29;58.24
42671;BME280;28283;55.426;37.756;2022-12-07T00:14:42;100615.84;;;-9.20;57.86
42671;BME280;28283;55.426;37.756;2022-12-07T00:19:43;100607.31;;;-9.25;57.71
42671;BME280;28283;55.426;37.756;2022-12-07T00:24:43;100604.00;;;-9.32;58.24
42671;BME280;28283;55.426;37.756;2022-12-07T00:29:44;100605.69;;;-9.29;58.17
42671;BME280;28283;55.426;37.756;2022-12-07T00:34:44;100584.53;;;-9.48;58.18
42671;BME280;28283;55.426;37.756;2022-12-07T00:39:46;100607.84;;;-9.44;58.98
42671;BME280;28283;55.426;37.756;2022-12-07T00:44:46;100619.81;;;-9.38;58.65
42671;BME280;28283;55.426;37.756;2022-12-07T00:49:47;100588.94;;;-9.50;57.92
42671;BME280;28283;55.426;37.756;2022-12-07T00:54:48;100608.81;;;-9.48;58.08
42671;BME280;28283;55.426;37.756;2022-12-07T00:59:48;100611.13;;;-9.38;58.00
42671;BME280;28283;55.426;37.756;2022-12-07T01:04:49;100602.06;;;-9.55;58.46
42671;BME280;28283;55.426;37.756;2022-12-07T01:09:50;100569.50;;;-9.70;58.33
42671;BME280;28283;55.426;37.756;2022-12-07T01:14:50;100613.16;;;-9.48;58.72
42671;BME280;28283;55.426;37.756;2022-12-07T01:19:51;100584.94;;;-9.64;58.72
42671;BME280;28283;55.426;37.756;2022-12-07T01:24:52;100603.81;;;-9.55;58.68
42671;BME280;28283;55.426;37.756;2022-12-07T01:29:52;100600.72;;;-9.68;58.80
42671;BME280;28283;55.426;37.756;2022-12-07T01:34:53;100603.00;;;-9.57;58.74
42671;BME280;28283;55.426;37.756;2022-12-07T01:39:54;100602.16;;;-9.58;59.36
42671;BME280;28283;55.426;37.756;2022-12-07T01:50:32;100594.41;;;-9.60;59.72
42671;BME280;28283;55.426;37.756;2022-12-07T01:55:35;100572.13;;;-9.70;59.69
42671;BME280;28283;55.426;37.756;2022-12-07T02:00:37;100486.56;;;-10.12;59.08
42671;BME280;28283;55.426;37.756;2022-12-07T02:05:40;100584.06;;;-9.63;59.44
42671;BME280;28283;55.426;37.756;2022-12-07T02:10:42;100586.66;;;-9.63;59.33
42671;BME280;28283;55.426;37.756;2022-12-07T02:21:40;100575.53;;;-9.68;59.97
42671;BME280;28283;55.426;37.756;2022-12-07T02:32:30;100576.28;;;-9.64;60.08
42671;BME280;28283;55.426;37.756;2022-12-07T02:37:53;100568.63;;;-9.69;60.34
42671;BME280;28283;55.426;37.756;2022-12-07T02:43:12;100571.16;;;-9.67;60.07
42671;BME280;28283;55.426;37.756;2022-12-07T02:48:17;100569.50;;;-9.70;60.28
42671;BME280;28283;55.426;37.756;2022-12-07T02:53:36;100569.50;;;-9.70;60.58
42671;BME280;28283;55.426;37.756;2022-12-07T02:58:50;100564.22;;;-9.67;60.56
42671;BME280;28283;55.426;37.756;2022-12-07T03:14:38;100559.03;;;-9.67;60.71
42671;BME280;28283;55.426;37.756;2022-12-07T03:19:44;100569.59;;;-9.73;60.71
42671;BME280;28283;55.426;37.756;2022-12-07T03:24:57;100559.19;;;-9.73;61.02
42671;BME280;28283;55.426;37.756;2022-12-07T03:30:08;100554.25;;;-9.82;60.74
42671;BME280;28283;55.426;37.756;2022-12-07T03:35:18;100565.56;;;-9.83;61.24
42671;BME280;28283;55.426;37.756;2022-12-07T03:40:26;100557.56;;;-9.77;61.49
42671;BME280;28283;55.426;37.756;2022-12-07T03:45:39;100550.84;;;-9.84;61.31
42671;BME280;28283;55.426;37.756;2022-12-07T03:56:16;100497.47;;;-10.30;61.64
42671;BME280;28283;55.426;37.756;2022-12-07T04:01:18;100548.69;;;-10.01;62.21
42671;BME280;28283;55.426;37.756;2022-12-07T04:06:18;100537.69;;;-10.11;62.30
42671;BME280;28283;55.426;37.756;2022-12-07T04:11:19;100541.47;;;-10.23;62.87
42671;BME280;28283;55.426;37.756;2022-12-07T04:16:20;100553.34;;;-10.14;63.03
42671;BME280;28283;55.426;37.756;2022-12-07T04:21:21;100521.09;;;-10.38;62.87
42671;BME280;28283;55.426;37.756;2022-12-07T04:26:21;100549.31;;;-10.24;62.94
42671;BME280;28283;55.426;37.756;2022-12-07T04:31:22;100528.00;;;-10.37;63.75
42671;BME280;28283;55.426;37.756;2022-12-07T04:36:22;100551.28;;;-10.32;64.13
42671;BME280;28283;55.426;37.756;2022-12-07T04:41:24;100540.03;;;-10.33;63.49
42671;BME280;28283;55.426;37.756;2022-12-07T04:46:29;100543.91;;;-10.49;64.05
42671;BME280;28283;55.426;37.756;2022-12-07T04:51:30;100549.19;;;-10.52;64.61
42671;BME280;28283;55.426;37.756;2022-12-07T04:56:31;100510.06;;;-10.82;64.44
42671;BME280;28283;55.426;37.756;2022-12-07T05:01:32;100547.50;;;-10.55;64.29
42671;BME280;28283;55.426;37.756;2022-12-07T05:06:33;100503.31;;;-10.89;64.94
42671;BME280;28283;55.426;37.756;2022-12-07T05:11:34;100547.31;;;-10.83;65.51
42671;BME280;28283;55.426;37.756;2022-12-07T05:16:39;100535.25;;;-10.86;65.92
42671;BME280;28283;55.426;37.756;2022-12-07T05:21:40;100536.22;;;-10.90;66.00
42671;BME280;28283;55.426;37.756;2022-12-07T05:26:41;100554.34;;;-10.87;66.00
42671;BME280;28283;55.426;37.756;2022-12-07T05:31:42;100532.75;;;-10.89;66.14
42671;BME280;28283;55.426;37.756;2022-12-07T05:36:43;100509.88;;;-11.10;66.45
42671;BME280;28283;55.426;37.756;2022-12-07T05:41:43;100537.41;;;-11.03;66.87
42671;BME280;28283;55.426;37.756;2022-12-07T05:47:03;100515.06;;;-11.10;67.44
42671;BME280;28283;55.426;37.756;2022-12-07T05:52:04;100524.00;;;-11.24;68.27
42671;BME280;28283;55.426;37.756;2022-12-07T05:57:04;100526.53;;;-11.21;68.25
42671;BME280;28283;55.426;37.756;2022-12-07T06:02:11;100554.06;;;-11.14;67.47
42671;BME280;28283;55.426;37.756;2022-12-07T06:07:14;100554.84;;;-11.10;68.83
42671;BME280;28283;55.426;37.756;2022-12-07T06:12:15;100519.06;;;-11.35;68.36
42671;BME280;28283;55.426;37.756;2022-12-07T06:17:33;100549.09;;;-11.23;68.82
42671;BME280;28283;55.426;37.756;2022-12-07T06:22:34;100538.84;;;-11.30;69.35
42671;BME280;28283;55.426;37.756;2022-12-07T06:27:35;100519.00;;;-11.31;70.05
42671;BME280;28283;55.426;37.756;2022-12-07T06:32:36;100545.38;;;-11.13;68.89
42671;BME280;28283;55.426;37.756;2022-12-07T06:37:37;100527.38;;;-11.20;69.64
42671;BME280;28283;55.426;37.756;2022-12-07T06:42:38;100503.41;;;-11.30;69.24
42671;BME280;28283;55.426;37.756;2022-12-07T06:47:38;100540.81;;;-11.01;70.08
42671;BME280;28283;55.426;37.756;2022-12-07T06:52:39;100526.06;;;-10.99;70.62
42671;BME280;28283;55.426;37.756;2022-12-07T06:57:40;100513.94;;;-11.00;70.66
42671;BME280;28283;55.426;37.756;2022-12-07T07:02:41;100488.09;;;-11.05;69.46
42671;BME280;28283;55.426;37.756;2022-12-07T07:07:41;100544.56;;;-10.77;70.01
42671;BME280;28283;55.426;37.756;2022-12-07T07:12:42;100529.19;;;-10.85;70.02
42671;BME280;28283;55.426;37.756;2022-12-07T07:17:43;100485.13;;;-10.89;70.14
42671;BME280;28283;55.426;37.756;2022-12-07T07:22:44;100546.47;;;-10.48;70.10
42671;BME280;28283;55.426;37.756;2022-12-07T07:27:45;100442.94;;;-10.98;70.01
42671;BME280;28283;55.426;37.756;2022-12-07T07:32:45;100531.94;;;-10.24;69.61
42671;BME280;28283;55.426;37.756;2022-12-07T07:37:46;100517.81;;;-10.13;69.04
42671;BME280;28283;55.426;37.756;2022-12-07T07:42:51;100491.22;;;-10.25;69.41
42671;BME280;28283;55.426;37.756;2022-12-07T07:47:53;100527.34;;;-9.81;68.97
42671;BME280;28283;55.426;37.756;2022-12-07T07:52:58;100524.69;;;-9.80;68.80
42671;BME280;28283;55.426;37.756;2022-12-07T08:00:43;100537.41;;;-9.69;68.64
42671;BME280;28283;55.426;37.756;2022-12-07T08:05:44;100498.88;;;-9.56;68.56
42671;BME280;28283;55.426;37.756;2022-12-07T08:10:44;100514.81;;;-9.38;68.05
42671;BME280;28283;55.426;37.756;2022-12-07T08:15:47;100504.19;;;-9.31;68.13
42671;BME280;28283;55.426;37.756;2022-12-07T08:20:47;100477.16;;;-9.27;67.29
42671;BME280;28283;55.426;37.756;2022-12-07T08:25:48;100489.16;;;-9.23;67.03
42671;BME280;28283;55.426;37.756;2022-12-07T08:30:49;100486.09;;;-9.07;67.16
42671;BME280;28283;55.426;37.756;2022-12-07T08:35:50;100488.59;;;-9.04;66.80
42671;BME280;28283;55.426;37.756;2022-12-07T08:40:55;100447.06;;;-9.09;66.05
42671;BME280;28283;55.426;37.756;2022-12-07T08:46:13;100490.25;;;-8.75;65.18
42671;BME280;28283;55.426;37.756;2022-12-07T08:51:15;100471.63;;;-8.62;64.75
42671;BME280;28283;55.426;37.756;2022-12-07T08:56:22;100430.78;;;-8.89;65.12
42671;BME280;28283;55.426;37.756;2022-12-07T09:01:36;100480.84;;;-8.52;65.20
42671;BME280;28283;55.426;37.756;2022-12-07T09:06:37;100482.06;;;-8.39;64.96
42671;BME280;28283;55.426;37.756;2022-12-07T09:11:38;100464.56;;;-8.35;64.44
42671;BME280;28283;55.426;37.756;2022-12-07T09:16:39;100444.09;;;-8.46;64.39
42671;BME280;28283;55.426;37.756;2022-12-07T09:21:40;100458.00;;;-8.22;63.93
42671;BME280;28283;55.426;37.756;2022-12-07T09:26:40;100457.25;;;-8.26;63.36
42671;BME280;28283;55.426;37.756;2022-12-07T09:31:41;100410.81;;;-8.39;63.18
42671;BME280;28283;55.426;37.756;2022-12-07T09:36:42;100446.56;;;-7.94;63.48
42671;BME280;28283;55.426;37.756;2022-12-07T09:41:44;100418.66;;;-7.92;63.37
42671;BME280;28283;55.426;37.756;2022-12-07T09:46:45;100418.59;;;-7.67;63.33
42671;BME280;28283;55.426;37.756;2022-12-07T09:51:47;100381.06;;;-7.64;61.99
42671;BME280;28283;55.426;37.756;2022-12-07T09:56:48;100420.50;;;-7.26;62.18
42671;BME280;28283;55.426;37.756;2022-12-07T10:01:49;100412.22;;;-7.16;62.01
42671;BME280;28283;55.426;37.756;2022-12-07T10:06:50;100415.84;;;-7.20;61.76
42671;BME280;28283;55.426;37.756;2022-12-07T10:12:08;100442.75;;;-7.18;60.42
42671;BME280;28283;55.426;37.756;2022-12-07T10:17:29;100428.97;;;-7.21;61.59
42671;BME280;28283;55.426;37.756;2022-12-07T10:22:30;100432.69;;;-7.27;62.33
42671;BME280;28283;55.426;37.756;2022-12-07T10:27:32;100417.81;;;-7.47;60.79
42671;BME280;28283;55.426;37.756;2022-12-07T10:32:35;100414.50;;;-7.74;61.91
42671;BME280;28283;55.426;37.756;2022-12-07T10:37:41;100412.38;;;-7.64;61.38
42671;BME280;28283;55.426;37.756;2022-12-07T10:42:41;100408.72;;;-7.82;61.96
42671;BME280;28283;55.426;37.756;2022-12-07T10:48:16;100404.97;;;-7.75;60.97
42671;BME280;28283;55.426;37.756;2022-12-07T10:59:13;100384.28;;;-7.80;61.79
42671;BME280;28283;55.426;37.756;2022-12-07T11:04:24;100390.34;;;-7.79;61.01
42671;BME280;28283;55.426;37.756;2022-12-07T11:19:48;100376.91;;;-7.92;60.69
42671;BME280;28283;55.426;37.756;2022-12-07T11:30:28;100354.69;;;-8.02;61.42
42671;BME280;28283;55.426;37.756;2022-12-07T11:41:09;100356.88;;;-7.92;60.90
42671;BME280;28283;55.426;37.756;2022-12-07T11:46:15;100349.34;;;-7.99;62.41
42671;BME280;28283;55.426;37.756;2022-12-07T11:51:18;100357.81;;;-7.93;62.50
42671;BME280;28283;55.426;37.756;2022-12-07T11:56:23;100348.88;;;-7.87;61.43
42671;BME280;28283;55.426;37.756;2022-12-07T12:06:31;100341.81;;;-8.07;62.37
42671;BME280;28283;55.426;37.756;2022-12-07T12:22:34;100319.59;;;-8.17;62.03
42671;BME280;28283;55.426;37.756;2022-12-07T12:27:37;100329.44;;;-8.26;63.18
42671;BME280;28283;55.426;37.756;2022-12-07T12:32:41;100306.81;;;-8.47;63.52
42671;BME280;28283;55.426;37.756;2022-12-07T12:37:43;100319.06;;;-8.49;63.28
42671;BME280;28283;55.426;37.756;2022-12-07T12:42:46;100305.28;;;-8.53;62.84
42671;BME280;28283;55.426;37.756;2022-12-07T12:47:56;100305.22;;;-8.75;63.77
42671;BME280;28283;55.426;37.756;2022-12-07T13:03:30;100293.09;;;-9.01;64.66
42671;BME280;28283;55.426;37.756;2022-12-07T13:08:32;100231.78;;;-9.60;64.31
42671;BME280;28283;55.426;37.756;2022-12-07T13:13:33;100308.69;;;-8.99;64.36
42671;BME280;28283;55.426;37.756;2022-12-07T13:18:36;100299.66;;;-9.14;64.80
42671;BME280;28283;55.426;37.756;2022-12-07T13:29:24;100264.31;;;-9.47;65.59
42671;BME280;28283;55.426;37.756;2022-12-07T13:34:32;100285.28;;;-9.26;65.28
42671;BME280;28283;55.426;37.756;2022-12-07T13:39:34;100290.06;;;-9.39;65.26
42671;BME280;28283;55.426;37.756;2022-12-07T13:44:40;100264.41;;;-9.50;65.04
42671;BME280;28283;55.426;37.756;2022-12-07T13:49:53;100294.97;;;-9.30;65.63
42671;BME280;28283;55.426;37.756;2022-12-07T14:00:27;100295.66;;;-9.25;65.62
42671;BME280;28283;55.426;37.756;2022-12-07T14:05:34;100280.63;;;-9.42;65.27
42671;BME280;28283;55.426;37.756;2022-12-07T14:10:38;100278.81;;;-9.39;65.68
42671;BME280;28283;55.426;37.756;2022-12-07T14:15:40;100241.28;;;-9.59;65.32
42671;BME280;28283;55.426;37.756;2022-12-07T14:20:41;100251.75;;;-9.61;66.22
42671;BME280;28283;55.426;37.756;2022-12-07T14:25:50;100240.28;;;-9.55;65.81
42671;BME280;28283;55.426;37.756;2022-12-07T14:30:51;100266.16;;;-9.50;65.90
42671;BME280;28283;55.426;37.756;2022-12-07T14:35:51;100252.59;;;-9.60;66.15
42671;BME280;28283;55.426;37.756;2022-12-07T14:40:56;100258.44;;;-9.53;66.31
42671;BME280;28283;55.426;37.756;2022-12-07T14:46:20;100255.41;;;-9.66;66.71
42671;BME280;28283;55.426;37.756;2022-12-07T14:51:20;100270.31;;;-9.71;66.68
42671;BME280;28283;55.426;37.756;2022-12-07T14:56:21;100264.00;;;-9.64;66.83
42671;BME280;28283;55.426;37.756;2022-12-07T15:01:22;100253.25;;;-9.80;66.96
42671;BME280;28283;55.426;37.756;2022-12-07T15:06:23;100263.31;;;-9.69;66.93
42671;BME280;28283;55.426;37.756;2022-12-07T15:11:30;100258.91;;;-9.67;67.18
42671;BME280;28283;55.426;37.756;2022-12-07T15:16:30;100256.41;;;-9.70;67.11
42671;BME280;28283;55.426;37.756;2022-12-07T15:21:31;100223.25;;;-9.90;67.73
42671;BME280;28283;55.426;37.756;2022-12-07T15:26:32;100246.09;;;-9.73;67.90
42671;BME280;28283;55.426;37.756;2022-12-07T15:31:34;100230.31;;;-9.94;68.01
42671;BME280;28283;55.426;37.756;2022-12-07T15:36:35;100254.72;;;-9.71;68.10
42671;BME280;28283;55.426;37.756;2022-12-07T15:41:36;100246.06;;;-9.72;68.23
42671;BME280;28283;55.426;37.756;2022-12-07T15:46:39;100241.16;;;-9.81;68.47
42671;BME280;28283;55.426;37.756;2022-12-07T15:51:41;100225.56;;;-9.81;68.82
42671;BME280;28283;55.426;37.756;2022-12-07T15:56:43;100223.53;;;-9.73;68.84
42671;BME280;28283;55.426;37.756;2022-12-07T16:01:43;100226.94;;;-9.71;68.43
42671;BME280;28283;55.426;37.756;2022-12-07T16:06:44;100209.03;;;-9.80;69.03
42671;BME280;28283;55.426;37.756;2022-12-07T16:11:45;100180.34;;;-10.04;69.03
42671;BME280;28283;55.426;37.756;2022-12-07T16:16:46;100217.69;;;-9.80;69.43
42671;BME280;28283;55.426;37.756;2022-12-07T16:21:47;100211.53;;;-9.77;68.79
42671;BME280;28283;55.426;37.756;2022-12-07T16:26:48;100198.03;;;-9.88;69.47
42671;BME280;28283;55.426;37.756;2022-12-07T16:31:51;100150.97;;;-10.07;68.98
42671;BME280;28283;55.426;37.756;2022-12-07T16:36:52;100206.94;;;-9.69;69.10
42671;BME280;28283;55.426;37.756;2022-12-07T16:41:52;100174.81;;;-9.94;69.40
42671;BME280;28283;55.426;37.756;2022-12-07T16:46:53;100198.38;;;-9.72;69.44
42671;BME280;28283;55.426;37.756;2022-12-07T16:51:54;100179.84;;;-9.88;69.48
42671;BME280;28283;55.426;37.756;2022-12-07T16:56:54;100179.72;;;-9.85;69.86
42671;BME280;28283;55.426;37.756;2022-12-07T17:01:55;100173.53;;;-9.81;69.12
42671;BME280;28283;55.426;37.756;2022-12-07T17:06:56;100163.31;;;-9.87;69.63
42671;BME280;28283;55.426;37.756;2022-12-07T17:11:56;100180.41;;;-9.80;69.94
42671;BME280;28283;55.426;37.756;2022-12-07T17:16:57;100166.88;;;-9.90;70.38
42671;BME280;28283;55.426;37.756;2022-12-07T17:21:58;100178.78;;;-9.83;70.13
42671;BME280;28283;55.426;37.756;2022-12-07T17:26:59;100168.94;;;-9.74;69.60
42671;BME280;28283;55.426;37.756;2022-12-07T17:31:59;100169.59;;;-9.68;69.60
42671;BME280;28283;55.426;37.756;2022-12-07T17:37:00;100164.81;;;-9.80;69.98
42671;BME280;28283;55.426;37.756;2022-12-07T17:42:00;100153.56;;;-9.81;70.38
42671;BME280;28283;55.426;37.756;2022-12-07T17:47:20;100145.91;;;-9.85;69.69
42671;BME280;28283;55.426;37.756;2022-12-07T17:52:21;100147.88;;;-9.92;70.21
42671;BME280;28283;55.426;37.756;2022-12-07T17:57:41;100156.75;;;-9.72;70.30
42671;BME280;28283;55.426;37.756;2022-12-07T18:02:41;100152.53;;;-9.76;69.98
42671;BME280;28283;55.426;37.756;2022-12-07T18:07:42;100158.47;;;-9.73;70.33
42671;BME280;28283;55.426;37.756;2022-12-07T18:12:43;100150.34;;;-9.64;70.11
42671;BME280;28283;55.426;37.756;2022-12-07T18:17:43;100130.41;;;-9.88;70.45
42671;BME280;28283;55.426;37.756;2022-12-07T18:22:44;100134.56;;;-9.83;70.40
42671;BME280;28283;55.426;37.756;2022-12-07T18:27:45;100146.06;;;-9.90;71.09
42671;BME280;28283;55.426;37.756;2022-12-07T18:32:46;100101.38;;;-10.01;70.45
42671;BME280;28283;55.426;37.756;2022-12-07T18:37:46;100133.16;;;-9.93;70.97
42671;BME280;28283;55.426;37.756;2022-12-07T18:42:47;100126.28;;;-9.94;71.08
42671;BME280;28283;55.426;37.756;2022-12-07T18:47:47;100107.38;;;-9.99;71.24
42671;BME280;28283;55.426;37.756;2022-12-07T18:52:48;100118.72;;;-10.02;71.25
42671;BME280;28283;55.426;37.756;2022-12-07T18:57:49;100125.91;;;-9.83;71.09
42671;BME280;28283;55.426;37.756;2022-12-07T19:02:50;100119.25;;;-9.92;71.36
42671;BME280;28283;55.426;37.756;2022-12-07T19:07:55;100123.50;;;-9.89;71.33
42671;BME280;28283;55.426;37.756;2022-12-07T19:12:59;100092.84;;;-10.05;70.79
42671;BME280;28283;55.426;37.756;2022-12-07T19:18:01;100085.81;;;-10.03;71.46
42671;BME280;28283;55.426;37.756;2022-12-07T19:23:02;100106.50;;;-10.00;71.18
42671;BME280;28283;55.426;37.756;2022-12-07T19:28:03;100095.44;;;-10.05;71.75
42671;BME280;28283;55.426;37.756;2022-12-07T19:33:04;100103.34;;;-10.08;71.95
42671;BME280;28283;55.426;37.756;2022-12-07T19:38:04;100103.81;;;-9.96;71.53
42671;BME280;28283;55.426;37.756;2022-12-07T19:43:05;100099.63;;;-10.01;72.16
42671;BME280;28283;55.426;37.756;2022-12-07T19:48:06;100079.19;;;-10.11;71.73
42671;BME280;28283;55.426;37.756;2022-12-07T19:53:06;100116.84;;;-9.98;71.23
42671;BME280;28283;55.426;37.756;2022-12-07T19:58:07;100059.59;;;-10.22;72.01
42671;BME280;28283;55.426;37.756;2022-12-07T20:03:08;100108.97;;;-9.95;71.57
42671;BME280;28283;55.426;37.756;2022-12-07T20:08:09;100078.34;;;-10.12;71.52
42671;BME280;28283;55.426;37.756;2022-12-07T20:13:09;100104.44;;;-10.15;71.48
42671;BME280;28283;55.426;37.756;2022-12-07T20:18:30;100071.41;;;-10.37;71.84
42671;BME280;28283;55.426;37.756;2022-12-07T20:23:30;100113.91;;;-10.14;72.54
42671;BME280;28283;55.426;37.756;2022-12-07T20:28:31;100089.16;;;-10.24;72.04
42671;BME280;28283;55.426;37.756;2022-12-07T20:33:32;100066.75;;;-10.28;72.21
42671;BME280;28283;55.426;37.756;2022-12-07T20:38:33;100097.44;;;-10.13;72.79
42671;BME280;28283;55.426;37.756;2022-12-07T20:43:33;100096.53;;;-10.12;72.00
42671;BME280;28283;55.426;37.756;2022-12-07T20:48:34;100082.09;;;-10.21;72.21
42671;BME280;28283;55.426;37.756;2022-12-07T20:53:35;100053.09;;;-10.33;72.23
42671;BME280;28283;55.426;37.756;2022-12-07T20:58:35;100068.94;;;-10.16;72.15
42671;BME280;28283;55.426;37.756;2022-12-07T21:03:36;100081.97;;;-10.18;71.66
42671;BME280;28283;55.426;37.756;2022-12-07T21:08:37;100040.41;;;-10.43;72.20
42671;BME280;28283;55.426;37.756;2022-12-07T21:13:38;100081.69;;;-10.08;72.63
42671;BME280;28283;55.426;37.756;2022-12-07T21:18:38;100058.22;;;-10.32;71.89
42671;BME280;28283;55.426;37.756;2022-12-07T21:23:39;100080.28;;;-10.19;72.83
42671;BME280;28283;55.426;37.756;2022-12-07T21:28:40;100074.06;;;-10.14;72.61
42671;BME280;28283;55.426;37.756;2022-12-07T21:33:41;100037.69;;;-10.40;72.63
42671;BME280;28283;55.426;37.756;2022-12-07T21:38:50;100047.75;;;-10.05;72.61
42671;BME280;28283;55.426;37.756;2022-12-07T21:43:54;100044.56;;;-9.88;72.72
42671;BME280;28283;55.426;37.756;2022-12-07T21:49:00;100004.34;;;-10.28;72.87
42671;BME280;28283;55.426;37.756;2022-12-07T21:54:02;100031.72;;;-9.93;72.50
42671;BME280;28283;55.426;37.756;2022-12-07T21:59:06;100045.38;;;-9.86;72.55
42671;BME280;28283;55.426;37.756;2022-12-07T22:04:14;100038.59;;;-9.90;73.34
42671;BME280;28283;55.426;37.756;2022-12-07T22:09:17;100026.31;;;-9.87;73.28
42671;BME280;28283;55.426;37.756;2022-12-07T22:14:24;100033.00;;;-9.80;73.20
42671;BME280;28283;55.426;37.756;2022-12-07T22:19:46;100028.41;;;-9.73;73.55
42671;BME280;28283;55.426;37.756;2022-12-07T22:24:47;100034.38;;;-9.71;73.24
42671;BME280;28283;55.426;37.756;2022-12-07T22:29:48;100025.59;;;-9.67;73.11
42671;BME280;28283;55.426;37.756;2022-12-07T22:34:49;100017.59;;;-9.62;73.67
42671;BME280;28283;55.426;37.756;2022-12-07T22:39:49;100003.63;;;-9.60;73.45
42671;BME280;28283;55.426;37.756;2022-12-07T22:44:50;100004.00;;;-9.69;74.61
42671;BME280;28283;55.426;37.756;2022-12-07T22:49:50;99984.84;;;-9.68;74.28
42671;BME280;28283;55.426;37.756;2022-12-07T22:54:51;99995.59;;;-9.53;73.64
42671;BME280;28283;55.426;37.756;2022-12-07T22:59:52;99998.03;;;-9.49;73.70
42671;BME280;28283;55.426;37.756;2022-12-07T23:04:52;99976.94;;;-9.65;74.34
42671;BME280;28283;55.426;37.756;2022-12-07T23:09:53;99995.38;;;-9.47;74.15
42671;BME280;28283;55.426;37.756;2022-12-07T23:14:54;99986.53;;;-9.43;74.00
42671;BME280;28283;55.426;37.756;2022-12-07T23:19:55;99982.84;;;-9.37;73.77
42671;BME280;28283;55.426;37.756;2022-12-07T23:24:55;99983.16;;;-9.45;73.61
42671;BME280;28283;55.426;37.756;2022-12-07T23:29:56;99974.41;;;-9.44;73.96
42671;BME280;28283;55.426;37.756;2022-12-07T23:34:57;99981.81;;;-9.33;73.78
42671;BME280;28283;55.426;37.756;2022-12-07T23:39:57;99966.44;;;-9.39;74.22
42671;BME280;28283;55.426;37.756;2022-12-07T23:44:58;99988.31;;;-9.22;74.00
42671;BME280;28283;55.426;37.756;2022-12-07T23:49:58;99965.59;;;-9.40;74.10
42671;BME280;28283;55.426;37.756;2022-12-07T23:54:59;99959.31;;;-9.34;74.17
